createdAt,value
2022-10-13T00:02:32.125Z,78.89
2022-10-13T00:06:33.970Z,78.88
2022-10-13T00:10:38.406Z,79.33
2022-10-13T00:14:41.733Z,79.86
2022-10-13T00:18:45.286Z,80.11
2022-10-13T00:22:47.163Z,80.20
2022-10-13T00:26:50.175Z,80.15
2022-10-13T00:30:53.996Z,80.03
2022-10-13T00:34:57.236Z,79.83
2022-10-13T00:38:59.120Z,79.82
2022-10-13T00:43:01.016Z,79.29
2022-10-13T00:47:02.979Z,79.33
2022-10-13T00:51:07.423Z,79.26
2022-10-13T00:55:13.188Z,79.17
2022-10-13T00:59:23.721Z,79.31
2022-10-13T01:03:28.329Z,79.49
2022-10-13T01:07:31.217Z,79.79
2022-10-13T01:11:46.329Z,80.19
2022-10-13T01:15:57.612Z,79.93
2022-10-13T01:19:59.371Z,79.67
2022-10-13T01:24:32.430Z,79.62
2022-10-13T01:28:52.847Z,80.15
2022-10-13T01:33:16.045Z,79.99
2022-10-13T01:38:00.333Z,80.53
2022-10-13T01:42:12.875Z,80.86
2022-10-13T01:46:34.617Z,80.81
2022-10-13T01:50:38.348Z,80.77
2022-10-13T01:54:40.406Z,80.45
2022-10-13T01:58:42.809Z,80.00
2022-10-13T02:02:48.173Z,79.90
2022-10-13T02:07:09.386Z,80.02
2022-10-13T02:11:17.049Z,80.10
2022-10-13T02:15:23.132Z,79.90
2022-10-13T02:19:25.613Z,79.61
2022-10-13T02:23:28.441Z,80.24
2022-10-13T02:27:30.372Z,80.46
2022-10-13T02:31:32.293Z,80.13
2022-10-13T02:35:34.466Z,80.44
2022-10-13T02:39:37.082Z,80.18
2022-10-13T02:43:39.042Z,80.63
2022-10-13T02:47:40.984Z,81.09
2022-10-13T02:51:42.775Z,80.81
2022-10-13T02:55:44.637Z,80.50
2022-10-13T02:59:46.494Z,81.16
2022-10-13T03:03:48.382Z,81.52
2022-10-13T03:07:50.212Z,81.35
2022-10-13T03:11:52.040Z,81.47
2022-10-13T03:15:53.899Z,81.30
2022-10-13T03:19:55.798Z,80.80
2022-10-13T03:23:57.672Z,80.70
2022-10-13T03:28:00.856Z,80.42
2022-10-13T03:32:03.006Z,81.00
2022-10-13T03:36:05.628Z,80.96
2022-10-13T03:40:08.416Z,80.38
2022-10-13T03:44:15.302Z,80.71
2022-10-13T03:48:17.199Z,81.10
2022-10-13T03:52:19.221Z,80.84
2022-10-13T03:56:24.701Z,80.63
2022-10-13T04:00:26.956Z,80.62
2022-10-13T04:04:28.749Z,80.85
2022-10-13T04:08:32.768Z,80.72
2022-10-13T04:12:34.825Z,80.78
2022-10-13T04:16:39.209Z,80.82
2022-10-13T04:20:41.576Z,80.84
2022-10-13T04:24:43.576Z,81.07
2022-10-13T04:28:47.468Z,81.66
2022-10-13T04:32:49.340Z,81.92
2022-10-13T04:36:52.761Z,81.92
2022-10-13T04:40:54.548Z,81.76
2022-10-13T04:44:56.446Z,81.79
2022-10-13T04:48:59.340Z,81.31
2022-10-13T04:53:07.106Z,81.33
2022-10-13T04:57:08.932Z,81.59
2022-10-13T05:01:17.669Z,81.69
2022-10-13T05:05:23.141Z,81.76
2022-10-13T05:09:25.233Z,81.64
2022-10-13T05:13:29.164Z,82.18
2022-10-13T05:17:35.258Z,82.97
2022-10-13T05:21:42.587Z,83.22
2022-10-13T05:25:44.679Z,82.45
2022-10-13T05:29:47.869Z,82.26
2022-10-13T05:33:51.652Z,82.21
2022-10-13T05:37:57.322Z,82.15
2022-10-13T05:41:59.171Z,82.82
2022-10-13T05:46:01.632Z,82.73
2022-10-13T05:50:04.936Z,82.94
2022-10-13T05:54:12.920Z,83.04
2022-10-13T05:58:15.293Z,82.88
2022-10-13T06:02:21.692Z,83.27
2022-10-13T06:06:27.915Z,83.70
2022-10-13T06:10:33.191Z,83.87
2022-10-13T06:14:35.578Z,84.00
2022-10-13T06:18:41.073Z,84.05
2022-10-13T06:22:43.009Z,84.17
2022-10-13T06:26:44.914Z,84.38
2022-10-13T06:30:53.063Z,84.75
2022-10-13T06:34:55.871Z,84.88
2022-10-13T06:38:57.741Z,85.15
2022-10-13T06:42:59.917Z,85.34
2022-10-13T06:47:03.281Z,85.45
2022-10-13T06:51:10.176Z,85.56
2022-10-13T06:55:12.185Z,85.72
2022-10-13T06:59:14.156Z,86.11
2022-10-13T07:03:20.045Z,86.39
2022-10-13T07:07:22.084Z,86.77
2022-10-13T07:11:24.649Z,87.10
2022-10-13T07:15:29.700Z,87.24
2022-10-13T07:19:31.655Z,86.58
2022-10-13T07:23:33.641Z,86.42
2022-10-13T07:27:37.621Z,86.45
2022-10-13T07:31:41.846Z,86.48
2022-10-13T07:35:43.727Z,86.41
2022-10-13T07:39:45.542Z,86.69
2022-10-13T07:43:47.614Z,86.53
2022-10-13T07:47:49.696Z,86.47
2022-10-13T07:51:51.988Z,86.07
2022-10-13T07:55:55.093Z,85.70
2022-10-13T07:59:57.182Z,85.49
2022-10-13T08:03:59.065Z,85.21
2022-10-13T08:08:00.949Z,85.16
2022-10-13T08:12:03.442Z,84.46
2022-10-13T08:16:05.537Z,83.91
2022-10-13T08:20:07.881Z,83.61
2022-10-13T08:24:13.401Z,83.35
2022-10-13T08:28:17.468Z,82.32
2022-10-13T08:32:20.886Z,80.71
2022-10-13T08:36:23.484Z,79.98
2022-10-13T08:40:25.631Z,79.89
2022-10-13T08:45:10.789Z,79.41
2022-10-13T08:49:05.465Z,78.47
2022-10-13T08:53:16.111Z,77.87
2022-10-13T08:57:21.994Z,77.20
2022-10-13T09:01:36.106Z,75.84
2022-10-13T09:05:49.615Z,75.64
2022-10-13T09:09:53.050Z,74.85
2022-10-13T09:13:57.512Z,73.40
2022-10-13T09:18:12.641Z,73.29
2022-10-13T09:22:38.742Z,73.26
2022-10-13T09:26:41.855Z,73.20
2022-10-13T09:30:46.643Z,72.93
2022-10-13T09:34:49.285Z,72.50
2022-10-13T09:39:14.192Z,72.00
2022-10-13T09:43:31.762Z,71.41
2022-10-13T09:47:34.138Z,71.28
2022-10-13T09:51:40.469Z,70.49
2022-10-13T09:56:23.251Z,69.86
2022-10-13T10:00:27.537Z,68.82
2022-10-13T10:04:37.374Z,68.63
2022-10-13T10:09:02.664Z,67.72
2022-10-13T10:13:12.535Z,68.46
2022-10-13T10:17:26.520Z,68.00
2022-10-13T10:21:43.149Z,66.84
2022-10-13T10:25:58.805Z,66.21
2022-10-13T10:30:12.604Z,65.15
2022-10-13T10:34:32.523Z,63.91
2022-10-13T10:38:42.312Z,64.63
2022-10-13T10:42:52.353Z,65.22
2022-10-13T10:47:02.439Z,65.15
2022-10-13T10:51:09.736Z,64.93
2022-10-13T10:55:26.151Z,64.32
2022-10-13T10:59:41.219Z,64.42
2022-10-13T11:03:47.179Z,64.76
2022-10-13T11:07:51.913Z,64.54
2022-10-13T11:11:53.901Z,64.41
2022-10-13T11:15:56.088Z,64.55
2022-10-13T11:19:58.982Z,64.16
2022-10-13T11:24:02.255Z,63.80
2022-10-13T11:28:22.661Z,63.63
2022-10-13T11:32:30.272Z,63.46
2022-10-13T11:36:38.959Z,63.20
2022-10-13T11:40:56.435Z,63.02
2022-10-13T11:45:03.838Z,63.10
2022-10-13T11:49:07.451Z,63.07
2022-10-13T11:53:23.924Z,62.40
2022-10-13T11:57:27.780Z,62.55
2022-10-13T12:01:29.787Z,62.28
2022-10-13T12:05:32.361Z,62.26
2022-10-13T12:09:39.402Z,60.75
2022-10-13T12:13:46.184Z,60.97
2022-10-13T12:17:50.180Z,61.24
2022-10-13T12:21:55.202Z,60.63
2022-10-13T12:25:58.414Z,60.86
2022-10-13T12:30:01.761Z,60.80
2022-10-13T12:34:04.363Z,59.94
2022-10-13T12:38:18.972Z,59.32
2022-10-13T12:42:29.098Z,59.91
2022-10-13T12:46:42.553Z,60.30
2022-10-13T12:50:44.491Z,60.45
2022-10-13T12:54:55.737Z,60.33
2022-10-13T12:58:59.200Z,59.32
2022-10-13T13:03:04.067Z,59.21
2022-10-13T13:07:36.598Z,59.12
2022-10-13T13:11:39.237Z,59.70
2022-10-13T13:15:44.212Z,59.88
2022-10-13T13:19:55.214Z,60.08
2022-10-13T13:23:57.067Z,59.74
2022-10-13T13:27:58.932Z,59.45
2022-10-13T13:32:00.747Z,59.68
2022-10-13T13:36:02.595Z,59.75
2022-10-13T13:40:06.317Z,59.73
2022-10-13T13:44:08.205Z,59.40
2022-10-13T13:48:12.575Z,59.14
2022-10-13T13:52:15.172Z,59.32
2022-10-13T13:56:18.641Z,59.36
2022-10-13T14:00:21.225Z,59.31
2022-10-13T14:04:29.564Z,59.67
2022-10-13T14:08:33.902Z,59.98
2022-10-13T14:12:37.275Z,60.23
2022-10-13T14:16:41.077Z,60.34
2022-10-13T14:20:43.377Z,60.13
2022-10-13T14:24:45.419Z,60.12
2022-10-13T14:28:47.529Z,60.05
2022-10-13T14:32:49.443Z,60.32
2022-10-13T14:36:51.418Z,60.56
2022-10-13T14:41:03.896Z,60.55
2022-10-13T14:45:06.333Z,60.61
2022-10-13T14:49:10.417Z,60.78
2022-10-13T14:53:15.996Z,60.92
2022-10-13T14:57:18.233Z,61.06
2022-10-13T15:01:20.672Z,61.15
2022-10-13T15:05:22.639Z,61.38
2022-10-13T15:09:33.493Z,61.68
2022-10-13T15:13:48.764Z,61.88
2022-10-13T15:17:50.631Z,62.03
2022-10-13T15:21:52.908Z,62.20
2022-10-13T15:25:57.993Z,62.40
2022-10-13T15:30:00.228Z,62.68
2022-10-13T15:34:02.109Z,62.88
2022-10-13T15:38:03.909Z,63.04
2022-10-13T15:42:05.784Z,63.18
2022-10-13T15:46:11.806Z,63.49
2022-10-13T15:50:14.711Z,63.64
2022-10-13T15:54:17.315Z,63.87
2022-10-13T15:58:19.193Z,63.99
2022-10-13T16:02:23.045Z,64.17
2022-10-13T16:06:26.260Z,64.46
2022-10-13T16:10:28.125Z,64.57
2022-10-13T16:14:30.106Z,64.67
2022-10-13T16:18:36.017Z,64.86
2022-10-13T16:22:38.100Z,65.27
2022-10-13T16:26:40.397Z,65.89
2022-10-13T16:30:42.765Z,66.03
2022-10-13T16:34:47.455Z,66.37
2022-10-13T16:38:54.446Z,66.92
2022-10-13T16:42:56.227Z,67.04
2022-10-13T16:47:00.112Z,67.54
2022-10-13T16:51:11.850Z,67.59
2022-10-13T16:55:15.246Z,67.78
2022-10-13T16:59:17.423Z,68.25
2022-10-13T17:03:19.340Z,68.66
2022-10-13T17:07:23.219Z,68.54
2022-10-13T17:11:28.308Z,68.65
2022-10-13T17:15:30.183Z,68.45
2022-10-13T17:19:32.204Z,68.53
2022-10-13T17:23:34.444Z,68.94
2022-10-13T17:27:36.984Z,69.18
2022-10-13T17:31:38.914Z,69.16
2022-10-13T17:35:40.866Z,69.30
2022-10-13T17:39:42.933Z,69.75
2022-10-13T17:43:45.040Z,70.03
2022-10-13T17:47:48.764Z,70.58
2022-10-13T17:51:53.131Z,70.76
2022-10-13T17:56:02.762Z,70.87
2022-10-13T18:00:06.018Z,71.15
2022-10-13T18:04:17.327Z,71.35
2022-10-13T18:08:20.024Z,71.69
2022-10-13T18:12:21.907Z,71.55
2022-10-13T18:16:24.052Z,72.14
2022-10-13T18:20:26.597Z,72.71
2022-10-13T18:24:28.533Z,73.07
2022-10-13T18:28:32.278Z,73.31
2022-10-13T18:32:34.266Z,73.09
2022-10-13T18:36:38.448Z,72.89
2022-10-13T18:40:43.486Z,72.88
2022-10-13T18:44:45.541Z,73.05
2022-10-13T18:48:47.479Z,73.23
2022-10-13T18:52:49.332Z,73.19
2022-10-13T18:56:52.720Z,73.34
2022-10-13T19:00:59.860Z,73.41
2022-10-13T19:05:02.026Z,73.52
2022-10-13T19:09:07.306Z,73.69
2022-10-13T19:13:11.135Z,73.88
2022-10-13T19:17:13.213Z,74.09
2022-10-13T19:21:16.244Z,74.37
2022-10-13T19:25:18.238Z,74.58
2022-10-13T19:29:20.296Z,74.39
2022-10-13T19:33:22.209Z,74.60
2022-10-13T19:37:24.150Z,74.74
2022-10-13T19:41:28.652Z,74.93
2022-10-13T19:45:31.289Z,75.03
2022-10-13T19:49:33.194Z,75.28
2022-10-13T19:53:36.495Z,75.51
2022-10-13T19:57:38.651Z,75.58
2022-10-13T20:01:40.631Z,75.55
2022-10-13T20:05:47.404Z,75.79
2022-10-13T20:09:49.267Z,76.27
2022-10-13T20:13:52.371Z,76.40
2022-10-13T20:17:54.231Z,76.45
2022-10-13T20:21:56.095Z,76.78
2022-10-13T20:26:06.460Z,76.92
2022-10-13T20:30:10.177Z,76.78
2022-10-13T20:34:12.140Z,76.72
2022-10-13T20:38:14.321Z,76.84
2022-10-13T20:42:16.232Z,77.11
2022-10-13T20:46:21.162Z,77.30
2022-10-13T20:50:23.014Z,77.43
2022-10-13T20:54:24.973Z,77.49
2022-10-13T20:58:30.371Z,77.24
2022-10-13T21:02:32.909Z,77.23
2022-10-13T21:06:36.010Z,77.44
2022-10-13T21:10:37.979Z,77.53
2022-10-13T21:14:40.163Z,77.64
2022-10-13T21:18:51.346Z,77.77
2022-10-13T21:22:54.313Z,77.93
2022-10-13T21:26:56.234Z,78.08
2022-10-13T21:31:00.129Z,77.78
2022-10-13T21:35:02.282Z,77.84
2022-10-13T21:39:05.615Z,77.76
2022-10-13T21:43:08.037Z,77.92
2022-10-13T21:47:09.919Z,78.07
2022-10-13T21:51:15.312Z,78.02
2022-10-13T21:55:17.168Z,78.21
2022-10-13T21:59:19.958Z,78.61
2022-10-13T22:03:21.792Z,78.88
2022-10-13T22:07:23.721Z,79.06
2022-10-13T22:11:28.685Z,79.04
2022-10-13T22:15:33.992Z,79.11
2022-10-13T22:19:36.489Z,79.22
2022-10-13T22:23:38.434Z,79.32
2022-10-13T22:27:40.277Z,79.35
2022-10-13T22:31:42.344Z,79.28
2022-10-13T22:35:46.297Z,79.33
2022-10-13T22:39:49.077Z,79.32
2022-10-13T22:43:55.945Z,78.96
2022-10-13T22:47:57.955Z,79.06
2022-10-13T22:51:59.785Z,78.92
2022-10-13T22:56:05.680Z,78.91
2022-10-13T23:00:09.770Z,79.01
2022-10-13T23:04:13.585Z,78.80
2022-10-13T23:08:15.555Z,78.83
2022-10-13T23:12:17.956Z,79.04
2022-10-13T23:16:23.105Z,79.30
2022-10-13T23:20:25.079Z,79.24
2022-10-13T23:24:27.094Z,79.07
2022-10-13T23:28:30.129Z,79.00
2022-10-13T23:32:32.252Z,79.14
2022-10-13T23:36:34.203Z,79.27
2022-10-13T23:40:36.312Z,79.41
2022-10-13T23:44:38.690Z,79.60
2022-10-13T23:48:41.097Z,79.71
2022-10-13T23:52:43.001Z,79.75
2022-10-13T23:56:44.863Z,79.78
